METAR and TAF’s


Available data for KLBB from the past 2 hours
LUBBOCK, TX
Metar
KLBB 201353Z 28005KT 10SM BKN250 M02/M06 A3052 RMK AO2 SLP345 BKN LYR THN T10171061

13:53 UTC

Wind: 280° 5kt

Visibility: 10 SM

Sky: BKN 25000 ft

Temp: -2 deg C / 28.4 deg F

Dewpoint: -6 deg C / 21.2 deg F

Pressure: 30.52 inHg

TAF
KLBB 201120Z 2012/2112 VRB05KT P6SM BKN200 FM202300 21007KT P6SM BKN250
Available data for KCVN from the past 2 hours
CLOVIS MUNI, NM
Metar
KCVN 201356Z AUTO 29004KT 10SM CLR M03/M06 A3051 RMK AO2 SLP359 T10331056 FZRANO

13:56 UTC

Wind: 290° 4kt

Visibility: 10 SM

Sky:

Temp: -3 deg C / 26.6 deg F

Dewpoint: -6 deg C / 21.2 deg F

Pressure: 30.51 inHg